Wyandotte, MI

1:06 PM EDT on May 06, 2015 (GMT -0400)
Detroit Ave. & Fort Park | | Change Station
CLOSE
Current Station
Personal Weather Station
Location: Lincoln Park, MI
Elevation: 587 ft
Nearby Weather Stations

Elev 587 ft 42.24 °N, 83.18 °W | Updated 13 minutes ago

Overcast
Overcast
64.2 °F
Feels Like 64.2 °F
N
2.2
Wind Variable Wind from SSE

Today
High -- | Low -- °F
--% Chance of Precip.
Yesterday
High -- | Low -- °F
Precip. -- in
6:22 AM 8:37 PM
Waning Gibbous, 93% visible
Pressure 30.24 in
Visibility 3.0 miles
Clouds Overcast 1000 ft
Dew Point 63 °F
Humidity 95%
Rainfall 0.55 in
Snow Depth Not available.
UV 3 out of 12
Pollen 8.10 out of 12
Air Quality Not available.
Flu Activity Regional
METAR KONZ 061654Z AUTO 18005KT 3SM BR OVC010 14/12 A3024 RMK AO2

More Conditions Fewer Conditions

Pressure 30.24 in
Visibility 3.0 miles
Clouds Overcast 1000 ft
Dew Point 63 °F
Humidity 95%
Rainfall 0.55 in
Snow Depth Not available.
UV 3 out of 12
Pollen 8.10 out of 12
Air Quality Not available.
Flu Activity Regional
METAR KONZ 061654Z AUTO 18005KT 3SM BR OVC010 14/12 A3024 RMK AO2

More Conditions Fewer Conditions

10-Day Weather Forecast

Almanac

Astronomy

May. 06, 2015 Rise Set
Actual Time
Civil Twilight
Nautical Twilight
Astronomical Twilight
Moon
Length of Visible Light
Length of Day
Tomorrow will be .
, % of the Moon is Illuminated

Today's Extremes

State Highs State Lows

Community

WunderPhotos

Upload Photos

1,818,954 photos uploaded!

WunderBlogs® & News

Nearby

Air Quality

  Air Quality AQ Index Pollutant
Not available.

Snow Depth

Station Depth Elevation

Earthquake Activity

City Distance Mag. Time & Date
Minimum magnitude displayed is 2.5.

Coastal Water Temperatures

Place Temperature

Stations

Nearby Weather Stations

Station Location Temp. Windchill Dew Point Humidity Wind Precip. Elev Updated Type